Terminal Aerodrome Forecast
Issued by NWS Jackson, KY

Home | Current Version | Previous Version | Text Only | Print | Product List | Glossary On
Versions: 1 2 3 4 5 6 7 8 9 10 11 12 13 14 15 16 17 18 19 20 21 22 23 24
000
FTUS43 KJKL 211126
TAFLOZ
TAF
KLOZ 211126Z 2112/2212 24005KT P6SM BKN025 BKN040
     FM211500 27007KT P6SM VCTS BKN025CB OVC040
     FM211800 30005KT P6SM VCTS BKN035CB BKN050
     FM220300 35009KT 6SM SHRA OVC015=

USA.gov is the U.S. government's official web portal to all federal, state and local government web resources and services.